CheckWX is a tool to help pilots better visualize weather data.  It is not intended as a substitute for an official pre-flight weather briefing.

01:55:29 UTC

KLUG METAR
Ellington Airport
Lewisburg, Tennessee, USA
Current

20 mins ago

KLUG 190135Z AUTO 00000KT 10SM CLR 24/22 A2996 RMK A01
Observed
Aug-19 @ 01:35 UTC
Visibility
10 SM
Flight Rules
VFR
Cloud Levels
  • Clear skies
Temperature
24°C / 75°F
Dewpoint
22°C / 72°F
Humidity
89%
Altimeter
29.96" Hg
Pressure
1014.52 hPa
Previous

60 mins ago

KLUG 190055Z AUTO 00000KT 10SM CLR 25/22 A2997 RMK A01
Observed
Aug-19 @ 00:55 UTC
Visibility
10 SM
Flight Rules
VFR
Cloud Levels
  • Clear skies
Temperature
25°C / 77°F
Dewpoint
22°C / 72°F
Humidity
83%
Altimeter
29.97" Hg
Pressure
1014.92 hPa
Previous

2 hours ago

KLUG 190015Z AUTO 00000KT 10SM CLR 27/23 A2998 RMK A01
Observed
Aug-19 @ 00:15 UTC
Visibility
10 SM
Flight Rules
VFR
Cloud Levels
  • Clear skies
Temperature
27°C / 81°F
Dewpoint
23°C / 73°F
Heat Index
30°C / 86°F
Humidity
79%
Altimeter
29.98" Hg
Pressure
1015.22 hPa